Andrés Romero

Olheiro-Chefe - Alvarado
25 Fev 2027
Quinta-feira
Processo

Personalidade

Adaptabilidade (13) Ambição (17) Controvérsia (18) Lealdade (19) Pressão (13) Profissionalismo (9) Espírito Esportivo (14) Temperamento (10)

Perfil

Estilo de Treinamento Democrático
Licença Nacional B
Determinação 7
Gestão de Pessoas 1
Motivação 5
Disciplina 7
Satisfação no Trabalho
56%
Fadiga
0%
Função Olheiro-Chefe
Salário 9.6K p/s
Contrato 14.03.2027

Desempenho

Comportamento Bom
Eficácia do Treinamento
12%
Desenvolvimento do Jogador
30%
Prevenção de Lesões
25%
Implementação Tática
5%

Eventos Recentes

Negociação de contrato iniciada agora
Aniversário agora
Negociação de contrato iniciada 7d atrás
Negociação de contrato iniciada 7d atrás
Negociação de contrato iniciada 7d atrás
Negociação de contrato iniciada 7d atrás
Negociação de contrato iniciada 7d atrás
Negociação de contrato iniciada 7d atrás

Monitorando agora

227
Jogador Clube Status Habilidade Confiança Observado Última observação Último voto
Vasco Espejo Alianza Lima Ativo 88 / 73 40% 3 29.11.2026 -
Luis Quintero Deportivo Pereira Ativo 87 / 91 40% 1 29.11.2026 -
Esteven Salguero Patriotas Ativo 90 / 107 40% 1 29.11.2026 -
Gastón Mansilla Maipú Ativo 102 / 105 40% 1 29.11.2026 -
Cristian Caicedo Estudiantes de Merida Ativo 92 / 86 40% 1 28.11.2026 -
Pedro Souto Temperley Ativo 112 / 104 40% 1 28.11.2026 -
Angel Zamudio Sport Huancayo Ativo 109 / 102 40% 1 28.11.2026 -
Aldhy Valencia Cesar Vallejo Ativo 85 / 96 40% 2 26.11.2026 -
Agustín Chávez Unión de Santa Fe Ativo 110 / 116 40% 1 26.11.2026 -
Santiago Asprilla Envigado Ativo 81 / 95 40% 2 25.11.2026 -
Cristian Soteldo Atletico Venezuela Ativo 97 / 85 40% 1 25.11.2026 -
Tomás Bottari Independiente Rivadavia Ativo 110 / 111 40% 1 25.11.2026 -
Javier Bustillos Los Andes Ativo 90 / 118 40% 1 25.11.2026 -
Matías Montero Madryn Ativo 104 / 115 40% 2 24.11.2026 -
Lautaro Amadé Defensa y Justicia Ativo 107 / 135 40% 2 24.11.2026 -
Emiliano González Almagro Ativo 113 / 110 40% 3 23.11.2026 -
Jeremías Vargas Estudiantes de Caracas Ativo 81 / 90 40% 2 22.11.2026 -
Enzo Vázquez Central Norte Ativo 108 / 114 40% 3 22.11.2026 -
Eliás Ajam Estudiantes de Merida Ativo 76 / 77 40% 1 22.11.2026 -
Agustín Gallo Tristán Suárez Ativo 113 / 123 40% 1 22.11.2026 -
Ezequiel Almirón Estudiantes Ativo 101 / 119 40% 2 21.11.2026 -
Ignacio Lago Colón Ativo 116 / 107 40% 2 21.11.2026 -
Fernando Abarzúa San Luis Ativo 88 / 87 40% 2 21.11.2026 -
Leandro Lucero Temperley Ativo 107 / 102 40% 1 21.11.2026 -
Victor Moreno Llaneros Ativo 95 / 91 40% 1 21.11.2026 -
Maico Quiroz Güemes Ativo 109 / 102 40% 3 20.11.2026 -
Facundo Heredia Patronato Ativo 121 / 101 40% 3 20.11.2026 -
Leonel Bucca Independiente Rivadavia Ativo 117 / 124 40% 1 18.11.2026 -
Gonzalo Mottes Chacarita Juniors Ativo 119 / 118 40% 1 18.11.2026 -
Yulián Montaño Depor Ativo 83 / 90 40% 2 17.11.2026 -
Novak Mićović LA Galaxy Ativo 120 / 116 40% 2 16.11.2026 -
Mathías Bordón Sol de America Ativo 90 / 79 40% 1 14.11.2026 -
Nahuel Galardi Maipú Ativo 99 / 121 40% 1 14.11.2026 -
Maximiliano Rueda Patronato Ativo 117 / 102 40% 1 14.11.2026 -
Luis Rojas Universidad de Concepcion Ativo 90 / 107 40% 1 14.11.2026 -
Sebastián Meza Huracán Ativo 137 / 141 40% 3 13.11.2026 -
Ronny Maza Aragua Ativo 87 / 88 40% 1 13.11.2026 -
Gonzalo Zelarayán Belgrano Ativo 103 / 126 40% 2 12.11.2026 -
Ryan Schewe Sporting Kansas City Ativo 99 / 91 40% 1 12.11.2026 -
Manuel Tasso New York City Ativo 86 / 91 40% 2 11.11.2026 -
Javier Mena Deportivo Pereira Ativo 93 / 117 40% 1 11.11.2026 -
Frankarlos Benítez Caracas Ativo 98 / 105 40% 2 10.11.2026 -
Víctor Rivero Aragua Ativo 90 / 97 40% 1 10.11.2026 -
Nicolás Henry Tristán Suárez Ativo 125 / 112 40% 1 10.11.2026 -
Rodrigo González Aldosivi Ativo 133 / 116 40% 1 10.11.2026 -
Agustín Módica Gimnasia y Esgrima Ativo 120 / 115 40% 1 08.11.2026 -
Mario Galeano Los Andes Ativo 118 / 128 40% 1 08.11.2026 -
Juan Bobba Estudiantes de Caracas Ativo 89 / 98 40% 1 08.11.2026 -
Joaquín Bigo Tristán Suárez Ativo 95 / 122 40% 1 08.11.2026 -
Valentín Serrano Arsenal Ativo 118 / 109 40% 2 07.11.2026 -
Aldair Ccorahua Sport Huancayo Ativo 84 / 92 40% 1 07.11.2026 -
Nicolás Soto America de Cali Ativo 89 / 88 40% 1 07.11.2026 -
Juan Yangali San Telmo Ativo 113 / 103 40% 2 06.11.2026 -
Siro Rosané Estudiantes Ativo 112 / 127 40% 1 06.11.2026 -
Joaquín Canadell Quilmes Ativo 103 / 106 40% 1 04.11.2026 -
Keiber Roa Carabobo Ativo 76 / 93 40% 2 03.11.2026 -
Fabricio Hass Central Norte Ativo 102 / 117 40% 2 03.11.2026 -
Tomás Palleres Güemes Ativo 99 / 86 40% 1 02.11.2026 -
Ítalo Sulbarán Zamora Ativo 79 / 81 40% 1 02.11.2026 -
Santiago Fernández Talleres Ativo 105 / 120 40% 2 01.11.2026 -
Francisco Salerno Defensores Unidos Ativo 108 / 108 40% 1 01.11.2026 -
Marcelo Esponda Newell's Old Boys Ativo 104 / 109 40% 1 01.11.2026 -
Alcides Benítez Belgrano Ativo 117 / 112 40% 1 31.10.2026 -
Mathieu Choinière Los Angeles Football Club Ativo 111 / 104 40% 1 31.10.2026 -
Mathías Bernatene Liverpool Montevideo Ativo 102 / 110 40% 1 30.10.2026 -
Martín González San Telmo Ativo 110 / 114 40% 1 30.10.2026 -
Cristian Jiménez Cruz Azul Ativo 71 / 105 40% 1 30.10.2026 -
Iván Tapia Barracas Central Ativo 113 / 121 40% 2 28.10.2026 -
Lautaro Herrera Estudiantes Ativo 103 / 108 40% 1 28.10.2026 -
Brian Calderara Chacarita Juniors Ativo 114 / 130 40% 1 28.10.2026 -
Mauricio Márquez Caracas Ativo 94 / 88 40% 1 27.10.2026 -
Erik Bodencer Central Norte Ativo 105 / 121 40% 1 27.10.2026 -
Augusto Bottini Almirante Brown Ativo 112 / 117 40% 1 27.10.2026 -
Tobías Leiva Estudiantes Ativo 115 / 132 40% 1 27.10.2026 -
Carlos Gutiérrez New York Red Bulls Ativo 98 / 88 40% 2 26.10.2026 -
Patricio Moyano Defensores Ativo 122 / 119 40% 1 26.10.2026 -
AJ Marcucci New York Red Bulls Ativo 117 / 76 40% 1 26.10.2026 -
Steven Pabón Trujillanos Ativo 101 / 102 40% 1 25.10.2026 -
Franco Godoy Aldosivi Ativo 99 / 95 40% 1 25.10.2026 -
Facundo Vila Estudiantes Ativo 101 / 109 40% 2 24.10.2026 -
Tomás Giménez Gimnasia y Esgrima Ativo 101 / 117 40% 1 24.10.2026 -
José Barreto Quilmes Ativo 106 / 110 40% 2 21.10.2026 -
Francisco Galván Deportivo Municipal Ativo 118 / 104 40% 1 21.10.2026 -
Franco Rivasseau Patronato Ativo 97 / 101 40% 1 21.10.2026 -
Marcos López San Martín Ativo 140 / 113 40% 1 21.10.2026 -
David Agudelo Depor Ativo 91 / 105 40% 1 19.10.2026 -
Lautaro Maldonado Instituto Ativo 121 / 129 40% 2 18.10.2026 -
Fernando Duré Estudiantes Ativo 99 / 110 40% 1 18.10.2026 -
Enrique Femia Danubio Ativo 105 / 115 40% 1 18.10.2026 -
Joaquín Enrico San Telmo Ativo 104 / 117 40% 1 17.10.2026 -
Gali Balanta Deportes Tolima Ativo 89 / 92 40% 1 17.10.2026 -
Matías Núñez Carabobo Ativo 108 / 109 40% 1 17.10.2026 -
Facundo Krüger Temperley Ativo 118 / 98 40% 2 16.10.2026 -
Diego Vicente La Luz Ativo 90 / 91 40% 1 15.10.2026 -
José Rivas Gamboa Trujillanos Ativo 110 / 98 40% 2 14.10.2026 -
Leandro Lescano Huracán Ativo 97 / 106 40% 1 14.10.2026 -
Mariano Ramos Guarani Ativo 93 / 97 40% 1 12.10.2026 -
Julián Vila Arsenal Ativo 100 / 87 40% 1 12.10.2026 -
Juan González River Plate Ativo 86 / 81 40% 1 12.10.2026 -
Alejandro Rodríguez Deportivo Cali Ativo 128 / 109 40% 2 11.10.2026 -
Nahuel Pezzini Arsenal Ativo 101 / 97 40% 2 11.10.2026 -
Agustín da Silveira Sportivo Trinidense Ativo 90 / 104 40% 1 10.10.2026 -
Bruno Caicedo Vancouver Whitecaps Ativo 109 / 135 40% 1 10.10.2026 -
Juan Luis Alfaro Banfield Ativo 118 / 126 40% 1 09.10.2026 -
Caden Clark DC United Ativo 102 / 104 40% 1 07.10.2026 -
Matías Machado Racing Ativo 121 / 96 40% 1 07.10.2026 -
Francisco Valenzuela Estudiantes de Merida Ativo 79 / 69 40% 1 07.10.2026 -
Jeferson Nolasco Cesar Vallejo Ativo 84 / 108 40% 1 06.10.2026 -
Diego Cabrera Artigas Ativo 75 / 78 40% 1 06.10.2026 -
Juan Pablo Barinaga Patronato Ativo 113 / 114 40% 1 05.10.2026 -
Leomar Mosquera Trujillanos Ativo 101 / 86 40% 1 05.10.2026 -
Matías Sosa Arsenal Ativo 106 / 106 40% 2 04.10.2026 -
Jonathan Sirois FC Dallas Ativo 127 / 99 40% 1 04.10.2026 -
Gianluca Pugliese Güemes Ativo 124 / 118 40% 1 04.10.2026 -
David Veliz Güemes Ativo 122 / 110 40% 1 03.10.2026 -
Axel Guerra Chacarita Juniors Ativo 105 / 97 40% 1 03.10.2026 -
Aldo Pérez Guarani Ativo 111 / 117 40% 3 02.10.2026 -
Samuel Lucero Defensa y Justicia Ativo 120 / 120 40% 1 01.10.2026 -
Jeremías Martinet River Plate Ativo 114 / 122 40% 1 01.10.2026 -
Mauro Casoli Talleres Ativo 98 / 117 40% 1 30.09.2026 -
Freddy Borja Llaneros Ativo 112 / 118 40% 1 29.09.2026 -
Kevin Isa Luna Central Norte Ativo 108 / 113 40% 1 28.09.2026 -
Ángel González Libertad Ativo 102 / 95 40% 3 27.09.2026 -
Santiago Sala Güemes Ativo 119 / 124 40% 1 27.09.2026 -
Jimmy Evans Universidad Catolica Ativo 109 / 90 40% 1 27.09.2026 -
Pedro Garrido Audax Italiano Ativo 72 / 78 40% 1 26.09.2026 -
Diego Fernández Guarani Ativo 113 / 123 40% 1 26.09.2026 -
Miguel Cornejo Cesar Vallejo Ativo 101 / 97 40% 1 26.09.2026 -
Enzo González Defensores Ativo 114 / 110 40% 1 24.09.2026 -
Iván Chaves Patronato Ativo 110 / 85 40% 1 24.09.2026 -
Vicente Concha Iquique Ativo 84 / 107 40% 2 22.09.2026 -
Gonzalo Flores Almirante Brown Ativo 102 / 100 40% 1 22.09.2026 -
Haret Ortega Santos Laguna Ativo 121 / 114 40% 1 21.09.2026 -
Jesús Vega Queretaro Ativo 117 / 96 40% 1 21.09.2026 -
Gastón Moreyra Almirante Brown Ativo 105 / 103 40% 1 20.09.2026 -
Walter Juárez Güemes Ativo 113 / 120 40% 1 20.09.2026 -
Martín García Atlanta Ativo 106 / 115 40% 1 20.09.2026 -
Catriel Cabellos Sporting Cristal Ativo 99 / 106 40% 1 19.09.2026 -
Juan Manuel Requena Universitario Ativo 112 / 125 40% 1 19.09.2026 -
Cristian Díaz Zamora Ativo 99 / 105 40% 1 17.09.2026 -
Nicolás Rossi Juventud Ativo 101 / 107 40% 1 17.09.2026 -
Santiago Viera Cerrito Ativo 100 / 102 40% 1 17.09.2026 -
Facundo Pérez Juventud Ativo 105 / 103 40% 1 17.09.2026 -
Alejandro Aguilar Bogota Ativo 83 / 99 40% 1 15.09.2026 -
Weibmar Asprilla Independiente Medellin Ativo 99 / 95 40% 4 14.09.2026 -
Federico Dafonte Boston River Ativo 99 / 92 40% 1 13.09.2026 -
Carlos Adrián Sánchez Pachuca Ativo 105 / 98 40% 1 13.09.2026 -
Francisco Casanova Cerrito Ativo 110 / 99 40% 2 12.09.2026 -
Fabrizio Correa Juventud Ativo 121 / 120 40% 2 12.09.2026 -
Samuel Velásquez Atletico Nacional Ativo 112 / 106 40% 1 12.09.2026 -
Ángel Maciel Tacuarembo Ativo 110 / 94 40% 1 11.09.2026 -
José Juan Macías Pumas UNAM Ativo 104 / 125 40% 1 10.09.2026 -
Éwil Murillo Santa Fe Ativo 123 / 109 40% 1 10.09.2026 -
Humberto Acevedo Union Magdalena Ativo 87 / 108 40% 1 09.09.2026 -
Carlos Higuera Chiapas Ativo 71 / 88 40% 1 09.09.2026 -
Alberto Martínez Guarani Ativo 82 / 91 40% 2 08.09.2026 -
Enzo Cabrera Danubio Ativo 111 / 109 40% 1 08.09.2026 -
Lucas Pazos Plaza Colonia Ativo 92 / 81 40% 1 08.09.2026 -
Juan Sebastián Rivero Progreso Ativo 97 / 115 40% 1 07.09.2026 -
Juan José Castaño Leones Ativo 96 / 92 40% 1 07.09.2026 -
Iván Camacho Patriotas Ativo 88 / 94 40% 1 06.09.2026 -
Emiliano García Uruguay Montevideo Ativo 99 / 93 40% 1 06.09.2026 -
Franco Pulicastro Fortaleza CEIF Ativo 106 / 117 40% 1 06.09.2026 -
Juan Diego Arboleda Leones Ativo 90 / 90 40% 1 06.09.2026 -
Rodolfo Rodríguez River Plate Ativo 92 / 78 40% 2 04.09.2026 -
Diego González Santos Laguna Ativo 101 / 106 40% 1 04.09.2026 -
Juan Camilo Mosquera Atletico Bucaramanga Ativo 105 / 111 40% 1 04.09.2026 -
Miguel Silva Carabobo Ativo 103 / 121 40% 2 03.09.2026 -
Lucas Verza Olimpia Ativo 118 / 107 40% 1 03.09.2026 -
Francisco Castillo Llaneros Ativo 107 / 90 40% 1 01.09.2026 -
Lucas Machado Defensor Sporting Ativo 96 / 108 40% 1 31.08.2026 -
Martín Vallejo Oriental Ativo 93 / 78 40% 1 30.08.2026 -
José Alvarado Leon Ativo 101 / 116 40% 1 30.08.2026 -
Bryan Bentaberry Olimpia Ativo 109 / 105 40% 1 30.08.2026 -
Edgar Zaldívar Atlas Ativo 93 / 128 40% 1 30.08.2026 -
Williams Barlasina Fortaleza CEIF Ativo 117 / 115 40% 1 28.08.2026 -
Luis Parra Estudiantes de Caracas Ativo 94 / 87 40% 1 27.08.2026 -
Fabián Ángel Junior Ativo 120 / 100 40% 1 27.08.2026 -
Diego Medina Santos Laguna Ativo 110 / 95 40% 1 26.08.2026 -
Ronaldo Lucena Atletico Nacional Ativo 110 / 89 40% 1 26.08.2026 -
Leandro Umpiérrez Penarol Ativo 107 / 101 40% 1 25.08.2026 -
Nicolás Castro Toluca Ativo 119 / 130 40% 1 25.08.2026 -
Gustavo Dionisi Guarani Ativo 85 / 86 40% 2 24.08.2026 -
Mateo Puerta Deportivo Cali Ativo 115 / 113 40% 1 24.08.2026 -
Facundo Di Biasi Gimnasia La Plata Ativo 115 / 126 40% 1 24.08.2026 -
Róyner Benítez Aguilas Doradas Ativo 110 / 118 40% 1 24.08.2026 -
Juan David Ruiz Leones Ativo 90 / 82 40% 1 24.08.2026 -
Nahuel Soria Oriental Ativo 99 / 103 40% 2 23.08.2026 -
Federico Andrade Wanderers Ativo 99 / 93 40% 1 23.08.2026 -
Alexis Steimbach Gimnasia La Plata Ativo 119 / 136 40% 1 23.08.2026 -
Cristian Tovar America de Cali Ativo 113 / 113 40% 1 23.08.2026 -
César Munder Palestino Ativo 105 / 101 40% 1 21.08.2026 -
Kevin Palacios Santos Laguna Ativo 99 / 97 40% 1 21.08.2026 -
Ulises Sánchez Gimnasia y Esgrima Ativo 122 / 110 40% 1 20.08.2026 -
Pável Pérez Toluca Ativo 106 / 106 40% 1 20.08.2026 -
Agustín Requena Progreso Ativo 111 / 112 40% 2 19.08.2026 -
Jhon Miranda Deportes Tolima Ativo 96 / 100 40% 1 19.08.2026 -
Rodrigo Muníz Uruguay Montevideo Ativo 104 / 104 40% 1 19.08.2026 -
Andrés Samurio Tacuarembo Ativo 105 / 116 40% 1 19.08.2026 -
Facundo Parada Racing Ativo 102 / 111 40% 1 18.08.2026 -
Jonathan Villagra Colo-Colo Ativo 109 / 103 40% 1 18.08.2026 -
Tomás Sultani Atletico Nacional Ativo 107 / 112 40% 1 16.08.2026 -
Kevin Campillay Antofagasta Ativo 89 / 85 40% 1 14.08.2026 -
Marcelo Miño Ferro Carril Oeste Ativo 112 / 98 40% 1 14.08.2026 -
Franklin Mosquera Jaguares Ativo 105 / 90 40% 1 14.08.2026 -
Emiliano Ancheta Nacional Ativo 121 / 122 40% 1 13.08.2026 -
Axel Encinas Union La Calera Ativo 103 / 100 40% 1 13.08.2026 -
Franco Martínez Artigas Ativo 89 / 99 40% 1 12.08.2026 -
Guillermo Borthagaray Wanderers Ativo 86 / 100 40% 1 12.08.2026 -
Alexis Gutiérrez Club America Ativo 114 / 144 40% 1 11.08.2026 -
Daniel Mera Union Magdalena Ativo 101 / 98 40% 1 11.08.2026 -
Sergio Carrasco Cobresal Ativo 85 / 84 40% 1 10.08.2026 -
Ricardo Echeverría Santos Laguna Ativo 108 / 114 40% 1 09.08.2026 -
James Mejia Cortulua Ativo 112 / 122 40% 1 09.08.2026 -
Máximo Alonso Central Espanol Ativo 112 / 99 40% 1 09.08.2026 -
Jonathan Vega Dorados Ativo 100 / 68 40% 1 09.08.2026 -
Juan Moreno Pachuca Ativo 100 / 122 40% 1 07.08.2026 -
Marcelo Flores Tigres Ativo 126 / 133 40% 1 07.08.2026 -
Owen Falconis Cerrito Ativo 97 / 89 40% 1 07.08.2026 -
Fabricio Roldán Rentistas Ativo 98 / 107 40% 1 06.08.2026 -
Debinson Mateus Tigres Ativo 98 / 80 40% 1 04.08.2026 -
Emiliano Márquez Central Espanol Ativo 100 / 112 40% 1 03.08.2026 -
Gonzalo Gómez Juventud Ativo 96 / 99 40% 1 03.08.2026 -
Lautaro Lusnig Deportivo Tachira Ativo 110 / 102 40% 1 02.08.2026 -
Marco Collao Audax Italiano Ativo 95 / 91 40% 1 02.08.2026 -
Cristian Barrios Junior Ativo 117 / 133 40% 1 01.08.2026 -
Mathías Rodríguez Cerrito Ativo 101 / 93 40% 1 01.08.2026 -